createdAt,value
2017-09-19T00:01:17.564Z,99.33
2017-09-19T00:03:44.878Z,74.53
2017-09-19T00:06:11.114Z,67.07
2017-09-19T00:08:37.357Z,48.23
2017-09-19T00:11:04.331Z,38.70
2017-09-19T00:13:30.562Z,32.47
2017-09-19T00:15:56.825Z,29.90
2017-09-19T00:18:23.052Z,31.60
2017-09-19T00:20:49.285Z,29.00
2017-09-19T00:23:15.553Z,31.37
2017-09-19T00:25:42.556Z,31.63
2017-09-19T00:28:08.829Z,25.17
2017-09-19T00:30:35.808Z,31.97
2017-09-19T00:33:02.059Z,34.37
2017-09-19T00:35:28.309Z,29.77
2017-09-19T00:37:54.583Z,28.20
2017-09-19T00:40:20.816Z,26.57
2017-09-19T00:42:47.050Z,37.37
2017-09-19T00:45:13.505Z,34.07
2017-09-19T00:47:39.741Z,38.97
2017-09-19T00:50:05.980Z,28.20
2017-09-19T00:52:32.271Z,28.33
2017-09-19T00:54:58.514Z,29.93
2017-09-19T00:57:24.788Z,26.93
2017-09-19T00:59:51.805Z,25.80
2017-09-19T01:02:18.064Z,27.97
2017-09-19T01:04:45.042Z,29.60
2017-09-19T01:07:11.336Z,26.27
2017-09-19T01:09:38.325Z,28.23
2017-09-19T01:12:04.653Z,27.27
2017-09-19T01:14:30.925Z,27.70
2017-09-19T01:16:57.154Z,28.00
2017-09-19T01:19:23.409Z,27.87
2017-09-19T01:21:49.685Z,27.27
2017-09-19T01:24:15.940Z,54.40
2017-09-19T01:26:42.181Z,33.13
2017-09-19T01:29:09.396Z,66.30
2017-09-19T01:31:35.649Z,141.97
2017-09-19T01:34:01.897Z,59.23
2017-09-19T01:36:29.041Z,35.90
2017-09-19T01:38:55.997Z,30.77
2017-09-19T01:41:22.225Z,35.07
2017-09-19T01:43:48.500Z,36.20
2017-09-19T01:46:14.717Z,40.03
2017-09-19T01:48:40.935Z,42.57
2017-09-19T01:51:07.168Z,33.50
2017-09-19T01:53:33.412Z,37.77
2017-09-19T01:55:59.642Z,38.83
2017-09-19T01:58:25.881Z,39.23
2017-09-19T02:00:52.106Z,41.83
2017-09-19T02:03:18.329Z,38.93
2017-09-19T02:05:44.580Z,40.30
2017-09-19T02:08:10.833Z,36.67
2017-09-19T02:10:37.794Z,44.37
2017-09-19T02:13:04.068Z,42.17
2017-09-19T02:15:30.288Z,41.23
2017-09-19T02:17:56.512Z,53.00
2017-09-19T02:20:22.764Z,70.17
2017-09-19T02:22:49.732Z,43.67
2017-09-19T02:25:16.693Z,50.87
2017-09-19T02:27:42.924Z,58.37
2017-09-19T02:30:09.150Z,48.17
2017-09-19T02:32:35.381Z,63.23
2017-09-19T02:35:01.668Z,65.80
2017-09-19T02:37:27.912Z,69.60
2017-09-19T02:39:54.881Z,54.20
2017-09-19T02:42:21.134Z,48.33
2017-09-19T02:44:47.366Z,59.53
2017-09-19T02:47:13.589Z,39.20
2017-09-19T02:49:39.993Z,68.43
2017-09-19T02:52:06.212Z,57.03
2017-09-19T02:54:33.592Z,45.13
2017-09-19T02:56:59.856Z,35.10
2017-09-19T02:59:26.095Z,56.87
2017-09-19T03:01:52.322Z,41.03
2017-09-19T03:04:18.569Z,56.30
2017-09-19T03:06:45.549Z,44.20
2017-09-19T03:09:11.787Z,41.30
2017-09-19T03:11:38.032Z,38.27
2017-09-19T03:14:04.277Z,28.07
2017-09-19T03:16:30.504Z,28.97
2017-09-19T03:18:56.739Z,31.93
2017-09-19T03:21:22.987Z,35.40
2017-09-19T03:23:49.944Z,32.57
2017-09-19T03:26:16.286Z,31.57
2017-09-19T03:28:42.514Z,36.03
2017-09-19T03:31:08.751Z,40.53
2017-09-19T03:33:34.979Z,34.63
2017-09-19T03:36:01.237Z,38.80
2017-09-19T03:38:27.501Z,41.10
2017-09-19T03:40:54.464Z,50.27
2017-09-19T03:43:20.702Z,38.90
2017-09-19T03:45:46.984Z,38.73
2017-09-19T03:48:13.219Z,38.57
2017-09-19T03:50:39.444Z,48.43
2017-09-19T03:53:06.057Z,43.60
2017-09-19T03:55:32.290Z,49.20
2017-09-19T03:57:58.532Z,51.10
2017-09-19T04:00:24.820Z,58.53
2017-09-19T04:02:51.299Z,52.10
2017-09-19T04:05:17.528Z,53.77
2017-09-19T04:07:44.137Z,54.23
2017-09-19T04:10:10.398Z,54.93
2017-09-19T04:12:36.629Z,49.83
2017-09-19T04:15:02.917Z,51.37
2017-09-19T04:17:29.164Z,55.87
2017-09-19T04:19:55.389Z,58.93
2017-09-19T04:22:21.904Z,53.03
2017-09-19T04:24:48.129Z,53.87
2017-09-19T04:27:14.379Z,62.83
2017-09-19T04:29:40.654Z,49.93
2017-09-19T04:32:07.652Z,46.23
2017-09-19T04:34:33.894Z,53.07
2017-09-19T04:37:00.161Z,58.33
2017-09-19T04:39:26.400Z,56.80
2017-09-19T04:41:52.655Z,49.17
2017-09-19T04:44:19.112Z,50.50
2017-09-19T04:46:45.343Z,52.70
2017-09-19T04:49:11.568Z,51.50
2017-09-19T04:51:37.874Z,52.93
2017-09-19T04:54:04.085Z,55.27
2017-09-19T04:56:30.319Z,50.73
2017-09-19T04:58:56.569Z,51.57
2017-09-19T05:01:22.793Z,57.67
2017-09-19T05:03:49.026Z,57.07
2017-09-19T05:06:15.264Z,56.37
2017-09-19T05:08:41.485Z,55.93
2017-09-19T05:11:07.825Z,61.03
2017-09-19T05:13:34.072Z,67.23
2017-09-19T05:16:01.048Z,55.43
2017-09-19T05:18:27.343Z,61.13
2017-09-19T05:20:53.577Z,61.67
2017-09-19T05:23:20.549Z,66.83
2017-09-19T05:25:46.814Z,61.70
2017-09-19T05:28:13.046Z,71.50
2017-09-19T05:30:39.281Z,71.30
2017-09-19T05:33:05.552Z,66.80
2017-09-19T05:35:32.565Z,76.50
2017-09-19T05:37:58.813Z,69.27
2017-09-19T05:40:25.832Z,70.30
2017-09-19T05:42:52.166Z,64.43
2017-09-19T05:45:18.416Z,66.07
2017-09-19T05:47:45.395Z,66.60
2017-09-19T05:50:11.652Z,57.53
2017-09-19T05:52:37.893Z,65.27
2017-09-19T05:55:04.124Z,62.40
2017-09-19T05:57:30.398Z,59.63
2017-09-19T05:59:56.659Z,66.73
2017-09-19T06:02:22.901Z,66.30
2017-09-19T06:04:50.053Z,64.57
2017-09-19T06:07:16.277Z,72.43
2017-09-19T06:09:42.516Z,68.17
2017-09-19T06:12:08.770Z,74.50
2017-09-19T06:14:35.733Z,71.27
2017-09-19T06:17:01.999Z,72.07
2017-09-19T06:19:28.412Z,74.73
2017-09-19T06:21:54.646Z,77.67
2017-09-19T06:24:20.903Z,81.27
2017-09-19T06:26:47.177Z,79.97
2017-09-19T06:29:13.425Z,86.83
2017-09-19T06:31:39.678Z,83.60
2017-09-19T06:34:06.673Z,92.30
2017-09-19T06:36:33.645Z,86.80
2017-09-19T06:39:00.490Z,80.37
2017-09-19T06:41:26.811Z,81.10
2017-09-19T06:43:53.049Z,88.00
2017-09-19T06:46:19.282Z,78.87
2017-09-19T06:48:46.525Z,85.67
2017-09-19T06:51:12.956Z,81.67
2017-09-19T06:53:39.201Z,82.03
2017-09-19T06:56:05.597Z,85.73
2017-09-19T06:58:32.221Z,81.40
2017-09-19T07:00:59.563Z,79.23
2017-09-19T07:03:26.069Z,88.07
2017-09-19T07:05:52.540Z,83.90
2017-09-19T07:08:18.810Z,78.60
2017-09-19T07:10:45.201Z,85.03
2017-09-19T07:13:12.296Z,86.73
2017-09-19T07:15:38.544Z,96.90
2017-09-19T07:18:04.829Z,107.60
2017-09-19T07:20:31.074Z,92.40
2017-09-19T07:22:57.672Z,91.13
2017-09-19T07:25:25.006Z,87.03
2017-09-19T07:27:51.295Z,83.17
2017-09-19T07:30:17.621Z,80.57
2017-09-19T07:32:44.069Z,92.93
2017-09-19T07:35:10.298Z,89.83
2017-09-19T07:37:36.536Z,85.67
2017-09-19T07:40:02.793Z,81.73
2017-09-19T07:42:29.020Z,92.13
2017-09-19T07:44:55.254Z,91.30
2017-09-19T07:47:22.256Z,92.93
2017-09-19T07:49:48.693Z,84.70
2017-09-19T07:52:15.225Z,83.53
2017-09-19T07:54:41.449Z,94.40
2017-09-19T07:57:07.689Z,89.47
2017-09-19T07:59:34.333Z,90.60
2017-09-19T08:02:00.889Z,111.50
2017-09-19T08:04:27.124Z,226.40
2017-09-19T08:06:54.278Z,88.13
2017-09-19T08:09:21.355Z,120.53
2017-09-19T08:11:48.079Z,128.43
2017-09-19T08:14:15.299Z,145.30
2017-09-19T08:16:42.096Z,98.70
2017-09-19T08:19:08.334Z,73.30
2017-09-19T08:21:34.557Z,79.70
2017-09-19T08:24:00.779Z,76.50
2017-09-19T08:26:27.048Z,70.13
2017-09-19T08:28:53.260Z,92.53
2017-09-19T08:31:19.509Z,72.87
2017-09-19T08:33:45.782Z,68.93
2017-09-19T08:36:12.008Z,81.90
2017-09-19T08:38:38.246Z,75.27
2017-09-19T08:41:04.710Z,70.53
2017-09-19T08:43:30.937Z,70.73
2017-09-19T08:45:57.159Z,178.30
2017-09-19T08:48:23.402Z,142.00
2017-09-19T08:50:49.636Z,79.10
2017-09-19T08:53:15.878Z,324.60
2017-09-19T08:55:42.149Z,66.70
2017-09-19T08:58:08.382Z,97.87
2017-09-19T09:00:34.617Z,83.13
2017-09-19T09:03:00.876Z,74.10
2017-09-19T09:05:27.836Z,58.23
2017-09-19T09:07:54.095Z,79.93
2017-09-19T09:10:20.337Z,65.20
2017-09-19T09:12:46.544Z,63.73
2017-09-19T09:15:13.515Z,68.40
2017-09-19T09:17:39.781Z,78.20
2017-09-19T09:20:06.001Z,107.73
2017-09-19T09:22:32.953Z,56.83
2017-09-19T09:24:59.191Z,69.43
2017-09-19T09:27:25.402Z,106.13
2017-09-19T09:29:51.645Z,67.63
2017-09-19T09:32:17.900Z,69.67
2017-09-19T09:34:44.871Z,62.23
2017-09-19T09:37:11.077Z,76.70
2017-09-19T09:39:38.054Z,56.37
2017-09-19T09:42:04.303Z,52.10
2017-09-19T09:44:30.541Z,54.03
2017-09-19T09:46:56.770Z,54.40
2017-09-19T09:49:23.013Z,67.93
2017-09-19T09:51:49.312Z,73.90
2017-09-19T09:54:15.560Z,57.43
2017-09-19T09:56:41.792Z,49.80
2017-09-19T09:59:08.063Z,50.67
2017-09-19T10:01:34.293Z,53.17
2017-09-19T10:04:00.523Z,94.73
2017-09-19T10:06:27.102Z,120.83
2017-09-19T10:08:53.344Z,51.70
2017-09-19T10:11:19.594Z,59.37
2017-09-19T10:13:46.583Z,63.97
2017-09-19T10:16:12.805Z,47.80
2017-09-19T10:18:39.012Z,52.33
2017-09-19T10:21:05.265Z,46.27
2017-09-19T10:23:31.476Z,48.13
2017-09-19T10:25:57.700Z,54.80
2017-09-19T10:28:23.970Z,53.53
2017-09-19T10:30:50.197Z,80.80
2017-09-19T10:33:16.436Z,52.83
2017-09-19T10:35:42.661Z,47.70
2017-09-19T10:38:08.892Z,54.93
2017-09-19T10:40:35.155Z,46.03
2017-09-19T10:43:01.409Z,103.57
2017-09-19T10:45:27.658Z,78.10
2017-09-19T10:47:54.005Z,64.43
2017-09-19T10:50:20.245Z,123.40
2017-09-19T10:52:47.361Z,67.93
2017-09-19T10:55:14.001Z,64.67
2017-09-19T10:57:40.233Z,62.90
2017-09-19T11:00:06.539Z,55.20
2017-09-19T11:02:32.881Z,82.67
2017-09-19T11:04:59.150Z,73.47
2017-09-19T11:07:25.433Z,58.00
2017-09-19T11:09:51.726Z,43.90
2017-09-19T11:12:18.708Z,44.23
2017-09-19T11:14:45.217Z,43.90
2017-09-19T11:17:11.759Z,46.63
2017-09-19T11:19:38.085Z,46.53
2017-09-19T11:22:04.616Z,43.90
2017-09-19T11:24:31.423Z,88.03
2017-09-19T11:26:59.954Z,50.63
2017-09-19T11:29:26.317Z,30.83
2017-09-19T11:31:52.716Z,34.23
2017-09-19T11:34:19.000Z,41.70
2017-09-19T11:36:45.268Z,34.97
2017-09-19T11:39:11.480Z,30.10
2017-09-19T11:41:38.677Z,31.73
2017-09-19T11:44:04.895Z,47.80
2017-09-19T11:46:31.124Z,55.70
2017-09-19T11:48:57.375Z,57.37
2017-09-19T11:51:23.602Z,53.87
2017-09-19T11:53:49.821Z,40.03
2017-09-19T11:56:16.246Z,32.10
2017-09-19T11:58:42.481Z,40.90
2017-09-19T12:01:08.710Z,42.37
2017-09-19T12:03:34.991Z,34.10
2017-09-19T12:06:01.963Z,50.43
2017-09-19T12:08:28.183Z,30.97
2017-09-19T12:10:54.509Z,71.73
2017-09-19T12:13:20.735Z,37.53
2017-09-19T12:15:46.945Z,21.30
2017-09-19T12:18:13.949Z,46.87
2017-09-19T12:20:40.936Z,40.17
2017-09-19T12:23:07.901Z,23.27
2017-09-19T12:25:34.632Z,35.23
2017-09-19T12:28:00.869Z,20.70
2017-09-19T12:30:27.217Z,20.70
2017-09-19T12:32:53.490Z,16.53
2017-09-19T12:35:20.021Z,18.63
2017-09-19T12:37:46.298Z,15.57
2017-09-19T12:40:12.570Z,11.87
2017-09-19T12:42:38.796Z,17.50
2017-09-19T12:45:05.113Z,33.17
2017-09-19T12:47:31.538Z,17.63
2017-09-19T12:50:01.162Z,22.00
2017-09-19T12:52:27.503Z,24.97
2017-09-19T12:54:53.754Z,13.37
2017-09-19T12:57:20.920Z,16.33
2017-09-19T12:59:47.637Z,29.87
2017-09-19T13:02:14.789Z,12.30
2017-09-19T13:04:41.760Z,18.23
2017-09-19T13:07:08.958Z,17.80
2017-09-19T13:09:35.202Z,28.53
2017-09-19T13:12:02.011Z,32.20
2017-09-19T13:14:28.683Z,36.23
2017-09-19T13:16:54.985Z,7.70
2017-09-19T13:19:21.218Z,10.07
2017-09-19T13:21:47.466Z,13.17
2017-09-19T13:24:13.781Z,10.77
2017-09-19T13:26:40.046Z,17.43
2017-09-19T13:29:07.028Z,18.50
2017-09-19T13:34:39.428Z,14.17
2017-09-19T13:37:05.691Z,31.93
2017-09-19T13:39:31.955Z,24.03
2017-09-19T13:41:58.223Z,17.60
2017-09-19T13:44:24.939Z,24.90
2017-09-19T13:46:51.192Z,11.90
2017-09-19T13:49:17.425Z,40.20
2017-09-19T13:51:43.732Z,29.67
2017-09-19T13:54:10.022Z,18.57
2017-09-19T13:56:37.002Z,28.20
2017-09-19T13:59:03.258Z,10.17
2017-09-19T14:01:29.498Z,7.90
2017-09-19T14:03:55.746Z,13.93
2017-09-19T14:06:23.101Z,13.43
2017-09-19T14:08:50.802Z,18.17
2017-09-19T14:11:17.065Z,9.87
2017-09-19T14:13:43.327Z,12.43
2017-09-19T14:16:10.309Z,7.47
2017-09-19T14:18:36.997Z,48.77
2017-09-19T14:21:04.051Z,13.33
2017-09-19T14:23:31.272Z,13.10
2017-09-19T14:25:58.317Z,6.33
2017-09-19T14:28:24.760Z,7.47
2017-09-19T14:30:51.010Z,16.30
2017-09-19T14:33:18.003Z,5.53
2017-09-19T14:35:44.262Z,8.57
2017-09-19T14:38:10.490Z,17.73
2017-09-19T14:40:36.717Z,8.37
2017-09-19T14:43:02.982Z,9.87
2017-09-19T14:45:30.904Z,18.23
2017-09-19T14:47:57.240Z,11.10
2017-09-19T14:50:23.668Z,13.20
2017-09-19T14:52:50.194Z,10.77
2017-09-19T14:55:17.123Z,14.23
2017-09-19T14:57:43.372Z,10.60
2017-09-19T15:00:09.634Z,6.03
2017-09-19T15:02:36.610Z,12.47
2017-09-19T15:05:02.886Z,10.13
2017-09-19T15:07:29.208Z,8.23
2017-09-19T15:09:55.580Z,9.10
2017-09-19T15:12:23.049Z,10.20
2017-09-19T15:14:49.357Z,10.20
2017-09-19T15:17:15.581Z,9.03
2017-09-19T15:19:41.807Z,8.27
2017-09-19T15:22:08.150Z,8.67
2017-09-19T15:24:35.505Z,6.37
2017-09-19T15:27:02.476Z,8.50
2017-09-19T15:29:28.949Z,11.30
2017-09-19T15:31:55.442Z,17.70
2017-09-19T15:34:21.717Z,16.50
2017-09-19T15:36:47.969Z,11.43
2017-09-19T15:39:14.205Z,9.40
2017-09-19T15:41:41.335Z,16.83
2017-09-19T15:44:07.759Z,7.63
2017-09-19T15:46:34.762Z,6.90
2017-09-19T15:49:01.014Z,13.57
2017-09-19T15:51:27.254Z,4.50
2017-09-19T15:53:53.948Z,4.03
2017-09-19T15:56:20.246Z,2.60
2017-09-19T15:58:47.613Z,1.93
2017-09-19T16:01:14.598Z,5.43
2017-09-19T16:03:41.641Z,1.30
2017-09-19T16:06:08.406Z,22.50
2017-09-19T16:08:34.645Z,17.47
2017-09-19T16:11:00.874Z,1.53
2017-09-19T16:13:27.112Z,3.13
2017-09-19T16:15:53.934Z,1.90
2017-09-19T16:18:20.245Z,2.13
2017-09-19T16:20:46.490Z,1.20
2017-09-19T16:23:12.796Z,2.80
2017-09-19T16:25:39.193Z,2.03
2017-09-19T16:28:06.157Z,1.17
2017-09-19T16:30:32.405Z,1.90
2017-09-19T16:32:58.630Z,1.27
2017-09-19T16:35:25.242Z,2.60
2017-09-19T16:37:52.495Z,2.60
2017-09-19T16:40:19.468Z,1.57
2017-09-19T16:42:46.009Z,1.67
2017-09-19T16:45:12.843Z,3.13
2017-09-19T16:47:39.069Z,3.70
2017-09-19T16:50:05.442Z,35.40
2017-09-19T16:52:31.961Z,2.23
2017-09-19T16:54:58.649Z,4.77
2017-09-19T16:57:25.622Z,4.20
2017-09-19T16:59:51.895Z,6.50
2017-09-19T17:02:18.338Z,9.27
2017-09-19T17:04:45.399Z,15.60
2017-09-19T17:07:12.446Z,11.17
2017-09-19T17:09:39.425Z,1.70
2017-09-19T17:12:05.920Z,9.20
2017-09-19T17:14:32.221Z,1.77
2017-09-19T17:16:58.653Z,2.00
2017-09-19T17:19:25.056Z,4.43
2017-09-19T17:21:52.133Z,2.93
2017-09-19T17:24:18.714Z,6.30
2017-09-19T17:26:45.124Z,2.27
2017-09-19T17:29:12.212Z,5.53
2017-09-19T17:31:38.677Z,4.83
2017-09-19T17:34:05.276Z,5.07
2017-09-19T17:36:31.525Z,1.47
2017-09-19T17:38:57.836Z,7.33
2017-09-19T17:41:24.378Z,3.13
2017-09-19T17:43:50.915Z,1.90
2017-09-19T17:46:17.177Z,7.97
2017-09-19T17:48:43.862Z,4.00
2017-09-19T17:51:10.208Z,3.83
2017-09-19T17:53:36.575Z,2.73
2017-09-19T17:56:02.831Z,4.47
2017-09-19T17:58:29.886Z,3.00
2017-09-19T18:00:57.439Z,3.83
2017-09-19T18:03:24.496Z,3.13
2017-09-19T18:05:50.818Z,6.47
2017-09-19T18:08:18.056Z,3.80
2017-09-19T18:10:45.334Z,7.67
2017-09-19T18:13:12.424Z,12.60
2017-09-19T18:15:38.847Z,2.67
2017-09-19T18:18:05.390Z,1.67
2017-09-19T18:20:31.779Z,24.33
2017-09-19T18:22:58.152Z,3.83
2017-09-19T18:25:24.515Z,1.70
2017-09-19T18:27:50.850Z,6.23
2017-09-19T18:30:17.964Z,32.80
2017-09-19T18:32:44.337Z,4.63
2017-09-19T18:35:11.483Z,162.23
2017-09-19T18:37:38.794Z,4.67
2017-09-19T18:40:05.488Z,23.73
2017-09-19T18:42:32.596Z,239.57
2017-09-19T18:44:59.965Z,197.97
2017-09-19T18:47:26.406Z,32.70
2017-09-19T18:49:53.570Z,4.20
2017-09-19T18:52:19.949Z,3.33
2017-09-19T18:54:46.495Z,9.23
2017-09-19T18:57:12.881Z,5.57
2017-09-19T18:59:39.509Z,13.80
2017-09-19T19:02:05.871Z,10.30
2017-09-19T19:04:32.215Z,9.00
2017-09-19T19:06:58.955Z,6.73
2017-09-19T19:09:25.325Z,3.07
2017-09-19T19:11:52.435Z,9.33
2017-09-19T19:14:19.272Z,2.90
2017-09-19T19:16:45.607Z,8.13
2017-09-19T19:19:11.955Z,11.10
2017-09-19T19:21:38.537Z,5.83
2017-09-19T19:24:04.878Z,17.03
2017-09-19T19:26:31.155Z,5.90
2017-09-19T19:28:57.541Z,63.37
2017-09-19T19:31:24.363Z,4.90
2017-09-19T19:33:50.724Z,45.67
2017-09-19T19:36:17.122Z,31.37
2017-09-19T19:38:43.697Z,15.30
2017-09-19T19:41:10.016Z,7.37
2017-09-19T19:43:36.288Z,15.13
2017-09-19T19:46:02.649Z,37.83
2017-09-19T19:48:30.081Z,14.23
2017-09-19T19:50:57.389Z,17.13
2017-09-19T19:53:24.611Z,6.00
2017-09-19T19:55:51.132Z,11.33
2017-09-19T19:58:20.078Z,16.03
2017-09-19T20:00:49.513Z,16.23
2017-09-19T20:03:19.248Z,11.47
2017-09-19T20:05:46.017Z,8.20
2017-09-19T20:08:12.314Z,3.70
2017-09-19T20:10:39.431Z,3.53
2017-09-19T20:13:05.784Z,3.60
2017-09-19T20:15:32.918Z,2.63
2017-09-19T20:17:59.310Z,2.17
2017-09-19T20:20:25.723Z,2.97
2017-09-19T20:22:52.350Z,2.40
2017-09-19T20:25:19.043Z,4.60
2017-09-19T20:27:45.347Z,4.30
2017-09-19T20:30:12.006Z,5.13
2017-09-19T20:32:38.407Z,11.83
2017-09-19T20:35:04.823Z,2.10
2017-09-19T20:37:32.456Z,7.90
2017-09-19T20:39:58.973Z,1.83
2017-09-19T20:42:25.296Z,4.80
2017-09-19T20:44:52.252Z,12.53
2017-09-19T20:47:18.628Z,2.17
2017-09-19T20:49:44.909Z,4.87
2017-09-19T20:52:11.363Z,4.50
2017-09-19T20:54:37.909Z,19.27
2017-09-19T20:57:05.459Z,19.00
2017-09-19T20:59:31.969Z,11.30
2017-09-19T21:01:58.943Z,19.63
2017-09-19T21:04:31.285Z,16.17
2017-09-19T21:07:03.798Z,5.80
2017-09-19T21:09:38.749Z,6.33
2017-09-19T21:12:16.550Z,7.20
2017-09-19T21:14:49.994Z,3.63
2017-09-19T21:17:22.988Z,9.73
2017-09-19T21:19:49.823Z,8.60
2017-09-19T21:22:16.130Z,11.80
2017-09-19T21:24:42.557Z,7.30
2017-09-19T21:27:09.048Z,6.60
2017-09-19T21:29:36.083Z,7.13
2017-09-19T21:32:02.492Z,4.67
2017-09-19T21:34:29.962Z,7.77
2017-09-19T21:36:56.631Z,4.80
2017-09-19T21:39:23.847Z,11.90
2017-09-19T21:41:50.889Z,7.20
2017-09-19T21:44:17.121Z,4.93
2017-09-19T21:46:43.745Z,12.17
2017-09-19T21:49:10.476Z,19.13
2017-09-19T21:51:37.502Z,6.13
2017-09-19T21:54:03.753Z,5.30
2017-09-19T21:56:30.043Z,10.23
2017-09-19T21:58:57.053Z,7.70
2017-09-19T22:01:24.887Z,10.93
2017-09-19T22:03:51.193Z,9.50
2017-09-19T22:06:18.800Z,11.70
2017-09-19T22:08:45.033Z,5.83
2017-09-19T22:11:11.650Z,4.30
2017-09-19T22:13:37.888Z,4.97
2017-09-19T22:16:04.328Z,5.10
2017-09-19T22:18:30.606Z,5.00
2017-09-19T22:20:57.578Z,6.30
2017-09-19T22:23:25.237Z,10.00
2017-09-19T22:25:51.545Z,7.77
2017-09-19T22:28:18.517Z,6.43
2017-09-19T22:30:44.741Z,9.93
2017-09-19T22:33:11.011Z,14.57
2017-09-19T22:35:37.244Z,9.07
2017-09-19T22:38:03.482Z,11.23
2017-09-19T22:40:29.746Z,9.00
2017-09-19T22:42:55.975Z,9.83
2017-09-19T22:45:23.159Z,13.93
2017-09-19T22:47:49.620Z,14.13
2017-09-19T22:50:16.428Z,12.93
2017-09-19T22:52:42.653Z,8.93
2017-09-19T22:55:08.881Z,13.47
2017-09-19T22:57:35.117Z,12.20
2017-09-19T23:00:01.661Z,14.23
2017-09-19T23:02:28.638Z,17.63
2017-09-19T23:04:55.608Z,15.93
2017-09-19T23:07:22.083Z,12.20
2017-09-19T23:09:48.322Z,14.80
2017-09-19T23:12:14.557Z,12.60
2017-09-19T23:14:40.900Z,18.97
2017-09-19T23:17:07.902Z,16.47
2017-09-19T23:19:34.127Z,15.30
2017-09-19T23:22:00.409Z,16.53
2017-09-19T23:24:27.376Z,20.37
2017-09-19T23:26:53.610Z,14.43
2017-09-19T23:29:19.869Z,17.37
2017-09-19T23:31:46.112Z,19.50
2017-09-19T23:34:12.350Z,21.57
2017-09-19T23:36:38.969Z,15.80
2017-09-19T23:39:05.221Z,16.30
2017-09-19T23:41:31.453Z,14.17
2017-09-19T23:43:58.549Z,14.50
2017-09-19T23:46:24.784Z,13.43
2017-09-19T23:48:51.009Z,16.97
2017-09-19T23:51:17.406Z,21.90
2017-09-19T23:53:43.622Z,17.03
2017-09-19T23:56:10.586Z,18.03
2017-09-19T23:58:37.061Z,17.60
